sensor_id;sensor_type;location;lat;lon;timestamp;P1;durP1;ratioP1;P2;durP2;ratioP2
69170;SDS011;56279;47.902;12.308;2022-09-23T00:01:35;7.47;;;4.43;;
69170;SDS011;56279;47.902;12.308;2022-09-23T00:03:38;7.43;;;4.22;;
69170;SDS011;56279;47.902;12.308;2022-09-23T00:05:41;7.20;;;4.17;;
69170;SDS011;56279;47.902;12.308;2022-09-23T00:07:43;10.13;;;4.38;;
69170;SDS011;56279;47.902;12.308;2022-09-23T00:09:45;8.27;;;4.13;;
69170;SDS011;56279;47.902;12.308;2022-09-23T00:11:46;8.60;;;4.53;;
69170;SDS011;56279;47.902;12.308;2022-09-23T00:13:49;8.70;;;3.80;;
69170;SDS011;56279;47.902;12.308;2022-09-23T00:15:52;8.40;;;4.03;;
69170;SDS011;56279;47.902;12.308;2022-09-23T00:17:54;9.27;;;4.25;;
69170;SDS011;56279;47.902;12.308;2022-09-23T00:19:55;7.93;;;4.40;;
69170;SDS011;56279;47.902;12.308;2022-09-23T00:21:56;6.78;;;4.10;;
69170;SDS011;56279;47.902;12.308;2022-09-23T00:23:57;8.20;;;4.28;;
69170;SDS011;56279;47.902;12.308;2022-09-23T00:26:00;7.67;;;4.00;;
69170;SDS011;56279;47.902;12.308;2022-09-23T00:28:02;6.30;;;3.70;;
69170;SDS011;56279;47.902;12.308;2022-09-23T00:30:05;8.43;;;3.97;;
69170;SDS011;56279;47.902;12.308;2022-09-23T00:32:08;6.65;;;4.22;;
69170;SDS011;56279;47.902;12.308;2022-09-23T00:34:09;5.88;;;3.70;;
69170;SDS011;56279;47.902;12.308;2022-09-23T00:36:12;7.77;;;3.87;;
69170;SDS011;56279;47.902;12.308;2022-09-23T00:38:17;6.70;;;3.47;;
69170;SDS011;56279;47.902;12.308;2022-09-23T00:40:19;7.97;;;4.20;;
69170;SDS011;56279;47.902;12.308;2022-09-23T00:42:21;6.75;;;3.75;;
69170;SDS011;56279;47.902;12.308;2022-09-23T00:46:42;6.20;;;3.13;;
69170;SDS011;56279;47.902;12.308;2022-09-23T00:48:44;6.97;;;4.20;;
69170;SDS011;56279;47.902;12.308;2022-09-23T00:50:49;6.53;;;3.75;;
69170;SDS011;56279;47.902;12.308;2022-09-23T00:52:54;6.18;;;3.58;;
69170;SDS011;56279;47.902;12.308;2022-09-23T00:54:58;7.25;;;3.50;;
69170;SDS011;56279;47.902;12.308;2022-09-23T00:57:02;6.00;;;3.93;;
69170;SDS011;56279;47.902;12.308;2022-09-23T00:59:06;7.13;;;3.60;;
69170;SDS011;56279;47.902;12.308;2022-09-23T01:01:09;6.85;;;3.80;;
69170;SDS011;56279;47.902;12.308;2022-09-23T01:03:13;6.20;;;3.60;;
69170;SDS011;56279;47.902;12.308;2022-09-23T01:05:15;8.65;;;3.85;;
69170;SDS011;56279;47.902;12.308;2022-09-23T01:07:17;6.73;;;3.80;;
69170;SDS011;56279;47.902;12.308;2022-09-23T01:09:18;5.70;;;3.17;;
69170;SDS011;56279;47.902;12.308;2022-09-23T01:17:27;8.65;;;3.50;;
69170;SDS011;56279;47.902;12.308;2022-09-23T01:26:29;5.88;;;3.25;;
69170;SDS011;56279;47.902;12.308;2022-09-23T01:33:34;6.75;;;3.42;;
69170;SDS011;56279;47.902;12.308;2022-09-23T01:47:29;8.07;;;4.22;;
69170;SDS011;56279;47.902;12.308;2022-09-23T01:49:45;6.85;;;3.80;;
69170;SDS011;56279;47.902;12.308;2022-09-23T01:51:58;7.32;;;3.92;;
69170;SDS011;56279;47.902;12.308;2022-09-23T01:56:46;6.55;;;3.85;;
69170;SDS011;56279;47.902;12.308;2022-09-23T01:59:10;9.90;;;5.57;;
69170;SDS011;56279;47.902;12.308;2022-09-23T02:01:16;7.50;;;4.63;;
69170;SDS011;56279;47.902;12.308;2022-09-23T02:03:30;8.55;;;4.55;;
69170;SDS011;56279;47.902;12.308;2022-09-23T02:05:40;7.57;;;4.27;;
69170;SDS011;56279;47.902;12.308;2022-09-23T02:10:16;9.25;;;4.70;;
69170;SDS011;56279;47.902;12.308;2022-09-23T02:12:23;9.15;;;5.53;;
69170;SDS011;56279;47.902;12.308;2022-09-23T02:15:05;9.30;;;5.18;;
69170;SDS011;56279;47.902;12.308;2022-09-23T02:17:04;8.53;;;4.50;;
69170;SDS011;56279;47.902;12.308;2022-09-23T02:19:11;8.70;;;4.75;;
69170;SDS011;56279;47.902;12.308;2022-09-23T02:21:16;9.60;;;5.70;;
69170;SDS011;56279;47.902;12.308;2022-09-23T02:23:25;8.10;;;4.45;;
69170;SDS011;56279;47.902;12.308;2022-09-23T02:25:34;10.13;;;5.00;;
69170;SDS011;56279;47.902;12.308;2022-09-23T02:32:17;9.07;;;5.10;;
69170;SDS011;56279;47.902;12.308;2022-09-23T02:34:31;10.85;;;5.50;;
69170;SDS011;56279;47.902;12.308;2022-09-23T02:36:59;7.78;;;4.68;;
69170;SDS011;56279;47.902;12.308;2022-09-23T02:39:21;9.80;;;4.93;;
69170;SDS011;56279;47.902;12.308;2022-09-23T02:43:41;10.63;;;5.00;;
69170;SDS011;56279;47.902;12.308;2022-09-23T02:45:59;8.23;;;4.90;;
69170;SDS011;56279;47.902;12.308;2022-09-23T02:48:06;8.05;;;4.75;;
69170;SDS011;56279;47.902;12.308;2022-09-23T02:50:14;8.57;;;4.57;;
69170;SDS011;56279;47.902;12.308;2022-09-23T02:52:16;9.13;;;4.68;;
69170;SDS011;56279;47.902;12.308;2022-09-23T02:54:18;8.00;;;4.60;;
69170;SDS011;56279;47.902;12.308;2022-09-23T02:56:23;7.72;;;4.63;;
69170;SDS011;56279;47.902;12.308;2022-09-23T02:58:25;8.52;;;4.85;;
69170;SDS011;56279;47.902;12.308;2022-09-23T03:05:42;9.55;;;5.03;;
69170;SDS011;56279;47.902;12.308;2022-09-23T03:10:54;7.97;;;4.70;;
69170;SDS011;56279;47.902;12.308;2022-09-23T03:13:16;8.17;;;4.47;;
69170;SDS011;56279;47.902;12.308;2022-09-23T03:15:43;7.57;;;4.68;;
69170;SDS011;56279;47.902;12.308;2022-09-23T03:17:57;8.38;;;5.07;;
69170;SDS011;56279;47.902;12.308;2022-09-23T03:20:14;9.32;;;4.43;;
69170;SDS011;56279;47.902;12.308;2022-09-23T03:22:28;8.18;;;4.95;;
69170;SDS011;56279;47.902;12.308;2022-09-23T03:24:34;9.57;;;4.47;;
69170;SDS011;56279;47.902;12.308;2022-09-23T03:26:37;8.13;;;4.90;;
69170;SDS011;56279;47.902;12.308;2022-09-23T03:28:41;8.82;;;5.07;;
69170;SDS011;56279;47.902;12.308;2022-09-23T03:30:44;9.18;;;4.68;;
69170;SDS011;56279;47.902;12.308;2022-09-23T03:32:46;8.70;;;4.45;;
69170;SDS011;56279;47.902;12.308;2022-09-23T03:34:49;8.83;;;5.07;;
69170;SDS011;56279;47.902;12.308;2022-09-23T03:36:57;17.45;;;5.70;;
69170;SDS011;56279;47.902;12.308;2022-09-23T03:39:07;8.93;;;4.93;;
69170;SDS011;56279;47.902;12.308;2022-09-23T03:41:13;9.00;;;4.75;;
69170;SDS011;56279;47.902;12.308;2022-09-23T03:43:17;8.48;;;4.55;;
69170;SDS011;56279;47.902;12.308;2022-09-23T03:45:20;7.93;;;5.20;;
69170;SDS011;56279;47.902;12.308;2022-09-23T03:47:26;6.93;;;4.38;;
69170;SDS011;56279;47.902;12.308;2022-09-23T03:49:28;8.70;;;5.05;;
69170;SDS011;56279;47.902;12.308;2022-09-23T03:51:35;9.32;;;5.13;;
69170;SDS011;56279;47.902;12.308;2022-09-23T03:53:36;11.73;;;4.75;;
69170;SDS011;56279;47.902;12.308;2022-09-23T03:55:39;8.87;;;4.77;;
69170;SDS011;56279;47.902;12.308;2022-09-23T03:57:40;6.75;;;4.18;;
69170;SDS011;56279;47.902;12.308;2022-09-23T03:59:41;8.27;;;4.65;;
69170;SDS011;56279;47.902;12.308;2022-09-23T04:01:43;7.75;;;4.60;;
69170;SDS011;56279;47.902;12.308;2022-09-23T04:03:45;8.70;;;4.50;;
69170;SDS011;56279;47.902;12.308;2022-09-23T04:05:46;8.47;;;4.97;;
69170;SDS011;56279;47.902;12.308;2022-09-23T04:07:48;8.35;;;4.38;;
69170;SDS011;56279;47.902;12.308;2022-09-23T04:09:52;10.60;;;4.60;;
69170;SDS011;56279;47.902;12.308;2022-09-23T04:11:53;8.02;;;4.57;;
69170;SDS011;56279;47.902;12.308;2022-09-23T04:13:55;8.70;;;4.00;;
69170;SDS011;56279;47.902;12.308;2022-09-23T04:15:56;7.30;;;4.27;;
69170;SDS011;56279;47.902;12.308;2022-09-23T04:17:58;7.57;;;4.22;;
69170;SDS011;56279;47.902;12.308;2022-09-23T04:19:59;7.88;;;4.30;;
69170;SDS011;56279;47.902;12.308;2022-09-23T04:22:00;9.13;;;4.28;;
69170;SDS011;56279;47.902;12.308;2022-09-23T04:24:02;7.80;;;4.18;;
69170;SDS011;56279;47.902;12.308;2022-09-23T04:26:04;7.33;;;3.90;;
69170;SDS011;56279;47.902;12.308;2022-09-23T04:28:05;9.07;;;4.22;;
69170;SDS011;56279;47.902;12.308;2022-09-23T04:30:07;9.30;;;4.10;;
69170;SDS011;56279;47.902;12.308;2022-09-23T04:32:09;8.45;;;4.30;;
69170;SDS011;56279;47.902;12.308;2022-09-23T04:34:10;8.15;;;4.78;;
69170;SDS011;56279;47.902;12.308;2022-09-23T04:36:13;7.50;;;4.27;;
69170;SDS011;56279;47.902;12.308;2022-09-23T04:38:14;8.55;;;4.30;;
69170;SDS011;56279;47.902;12.308;2022-09-23T04:40:15;8.13;;;4.53;;
69170;SDS011;56279;47.902;12.308;2022-09-23T04:42:17;7.30;;;3.65;;
69170;SDS011;56279;47.902;12.308;2022-09-23T04:44:18;9.13;;;4.43;;
69170;SDS011;56279;47.902;12.308;2022-09-23T04:46:20;8.03;;;4.27;;
69170;SDS011;56279;47.902;12.308;2022-09-23T04:48:21;7.78;;;4.30;;
69170;SDS011;56279;47.902;12.308;2022-09-23T04:50:23;9.68;;;5.15;;
69170;SDS011;56279;47.902;12.308;2022-09-23T04:52:25;8.80;;;4.53;;
69170;SDS011;56279;47.902;12.308;2022-09-23T04:54:27;7.95;;;5.05;;
69170;SDS011;56279;47.902;12.308;2022-09-23T04:56:29;7.63;;;4.80;;
69170;SDS011;56279;47.902;12.308;2022-09-23T04:58:33;6.93;;;3.95;;
69170;SDS011;56279;47.902;12.308;2022-09-23T05:00:36;7.45;;;4.03;;
69170;SDS011;56279;47.902;12.308;2022-09-23T05:02:47;7.80;;;4.30;;
69170;SDS011;56279;47.902;12.308;2022-09-23T05:04:50;6.75;;;3.65;;
69170;SDS011;56279;47.902;12.308;2022-09-23T05:06:51;7.40;;;3.93;;
69170;SDS011;56279;47.902;12.308;2022-09-23T05:08:53;6.88;;;3.65;;
69170;SDS011;56279;47.902;12.308;2022-09-23T05:10:58;6.55;;;3.75;;
69170;SDS011;56279;47.902;12.308;2022-09-23T05:13:01;7.90;;;4.10;;
69170;SDS011;56279;47.902;12.308;2022-09-23T05:15:03;7.25;;;3.90;;
69170;SDS011;56279;47.902;12.308;2022-09-23T05:17:05;7.43;;;3.63;;
69170;SDS011;56279;47.902;12.308;2022-09-23T05:19:06;5.80;;;3.45;;
69170;SDS011;56279;47.902;12.308;2022-09-23T05:21:11;6.43;;;3.70;;
69170;SDS011;56279;47.902;12.308;2022-09-23T05:23:13;7.45;;;4.15;;
69170;SDS011;56279;47.902;12.308;2022-09-23T05:25:14;8.32;;;4.38;;
69170;SDS011;56279;47.902;12.308;2022-09-23T05:27:16;7.13;;;4.03;;
69170;SDS011;56279;47.902;12.308;2022-09-23T05:29:17;7.13;;;4.13;;
69170;SDS011;56279;47.902;12.308;2022-09-23T05:31:22;6.63;;;4.18;;
69170;SDS011;56279;47.902;12.308;2022-09-23T05:33:25;7.25;;;4.28;;
69170;SDS011;56279;47.902;12.308;2022-09-23T05:35:26;8.27;;;4.38;;
69170;SDS011;56279;47.902;12.308;2022-09-23T05:37:28;9.50;;;4.90;;
69170;SDS011;56279;47.902;12.308;2022-09-23T05:39:29;8.05;;;4.85;;
69170;SDS011;56279;47.902;12.308;2022-09-23T05:45:11;9.15;;;5.45;;
69170;SDS011;56279;47.902;12.308;2022-09-23T05:47:12;8.93;;;5.53;;
69170;SDS011;56279;47.902;12.308;2022-09-23T05:49:14;8.90;;;4.83;;
69170;SDS011;56279;47.902;12.308;2022-09-23T05:51:16;11.32;;;5.80;;
69170;SDS011;56279;47.902;12.308;2022-09-23T05:53:19;10.07;;;5.85;;
69170;SDS011;56279;47.902;12.308;2022-09-23T05:55:21;10.02;;;5.60;;
69170;SDS011;56279;47.902;12.308;2022-09-23T05:57:22;10.20;;;6.20;;
69170;SDS011;56279;47.902;12.308;2022-09-23T05:59:23;9.70;;;5.77;;
69170;SDS011;56279;47.902;12.308;2022-09-23T06:01:26;10.07;;;5.85;;
69170;SDS011;56279;47.902;12.308;2022-09-23T06:03:31;10.10;;;6.05;;
69170;SDS011;56279;47.902;12.308;2022-09-23T06:05:33;10.00;;;6.18;;
69170;SDS011;56279;47.902;12.308;2022-09-23T06:07:34;9.45;;;5.80;;
69170;SDS011;56279;47.902;12.308;2022-09-23T06:09:35;9.33;;;5.60;;
69170;SDS011;56279;47.902;12.308;2022-09-23T06:11:36;8.65;;;5.30;;
69170;SDS011;56279;47.902;12.308;2022-09-23T06:13:38;9.65;;;5.85;;
69170;SDS011;56279;47.902;12.308;2022-09-23T06:15:40;9.23;;;5.53;;
69170;SDS011;56279;47.902;12.308;2022-09-23T06:17:44;8.15;;;5.10;;
69170;SDS011;56279;47.902;12.308;2022-09-23T06:19:46;9.67;;;5.63;;
69170;SDS011;56279;47.902;12.308;2022-09-23T06:21:47;7.97;;;4.95;;
69170;SDS011;56279;47.902;12.308;2022-09-23T06:23:49;7.35;;;5.00;;
69170;SDS011;56279;47.902;12.308;2022-09-23T06:25:50;9.98;;;5.00;;
69170;SDS011;56279;47.902;12.308;2022-09-23T06:27:53;8.95;;;4.78;;
69170;SDS011;56279;47.902;12.308;2022-09-23T06:29:55;8.80;;;4.70;;
69170;SDS011;56279;47.902;12.308;2022-09-23T06:31:57;9.50;;;5.50;;
69170;SDS011;56279;47.902;12.308;2022-09-23T06:33:59;9.93;;;5.60;;
69170;SDS011;56279;47.902;12.308;2022-09-23T06:36:01;9.50;;;5.90;;
69170;SDS011;56279;47.902;12.308;2022-09-23T06:38:04;10.18;;;5.85;;
69170;SDS011;56279;47.902;12.308;2022-09-23T06:40:06;10.57;;;6.23;;
69170;SDS011;56279;47.902;12.308;2022-09-23T06:42:07;11.68;;;6.10;;
69170;SDS011;56279;47.902;12.308;2022-09-23T06:44:09;11.32;;;6.28;;
69170;SDS011;56279;47.902;12.308;2022-09-23T06:46:12;12.55;;;7.50;;
69170;SDS011;56279;47.902;12.308;2022-09-23T06:48:15;11.15;;;7.03;;
69170;SDS011;56279;47.902;12.308;2022-09-23T06:50:16;11.63;;;7.10;;
69170;SDS011;56279;47.902;12.308;2022-09-23T06:52:18;12.95;;;7.22;;
69170;SDS011;56279;47.902;12.308;2022-09-23T06:54:21;13.30;;;7.32;;
69170;SDS011;56279;47.902;12.308;2022-09-23T06:56:22;11.55;;;7.05;;
69170;SDS011;56279;47.902;12.308;2022-09-23T06:58:24;11.43;;;7.20;;
69170;SDS011;56279;47.902;12.308;2022-09-23T07:00:26;12.27;;;7.30;;
69170;SDS011;56279;47.902;12.308;2022-09-23T07:02:29;10.60;;;6.40;;
69170;SDS011;56279;47.902;12.308;2022-09-23T07:04:30;11.60;;;6.78;;
69170;SDS011;56279;47.902;12.308;2022-09-23T07:06:31;12.05;;;6.60;;
69170;SDS011;56279;47.902;12.308;2022-09-23T07:08:33;14.35;;;6.75;;
69170;SDS011;56279;47.902;12.308;2022-09-23T07:10:35;12.77;;;7.17;;
69170;SDS011;56279;47.902;12.308;2022-09-23T07:12:37;12.18;;;7.20;;
69170;SDS011;56279;47.902;12.308;2022-09-23T07:14:38;12.98;;;7.18;;
69170;SDS011;56279;47.902;12.308;2022-09-23T07:16:40;12.02;;;6.80;;
69170;SDS011;56279;47.902;12.308;2022-09-23T07:18:41;11.93;;;6.88;;
69170;SDS011;56279;47.902;12.308;2022-09-23T07:20:43;10.17;;;6.03;;
69170;SDS011;56279;47.902;12.308;2022-09-23T07:22:48;11.57;;;6.68;;
69170;SDS011;56279;47.902;12.308;2022-09-23T07:24:50;11.23;;;7.20;;
69170;SDS011;56279;47.902;12.308;2022-09-23T07:26:51;12.95;;;6.78;;
69170;SDS011;56279;47.902;12.308;2022-09-23T07:28:55;10.70;;;6.15;;
69170;SDS011;56279;47.902;12.308;2022-09-23T07:31:14;11.03;;;6.40;;
69170;SDS011;56279;47.902;12.308;2022-09-23T07:33:17;9.80;;;5.72;;
69170;SDS011;56279;47.902;12.308;2022-09-23T07:35:18;12.05;;;6.78;;
69170;SDS011;56279;47.902;12.308;2022-09-23T07:37:23;12.68;;;6.80;;
69170;SDS011;56279;47.902;12.308;2022-09-23T07:39:24;11.63;;;7.20;;
69170;SDS011;56279;47.902;12.308;2022-09-23T07:41:25;11.17;;;6.40;;
69170;SDS011;56279;47.902;12.308;2022-09-23T07:43:28;10.77;;;6.32;;
69170;SDS011;56279;47.902;12.308;2022-09-23T07:45:32;11.68;;;6.40;;
69170;SDS011;56279;47.902;12.308;2022-09-23T07:47:34;10.18;;;6.38;;
69170;SDS011;56279;47.902;12.308;2022-09-23T07:49:35;9.95;;;6.18;;
69170;SDS011;56279;47.902;12.308;2022-09-23T07:51:37;9.70;;;5.73;;
69170;SDS011;56279;47.902;12.308;2022-09-23T07:53:40;10.52;;;6.20;;
69170;SDS011;56279;47.902;12.308;2022-09-23T07:55:41;10.40;;;6.53;;
69170;SDS011;56279;47.902;12.308;2022-09-23T07:57:42;13.80;;;6.38;;
69170;SDS011;56279;47.902;12.308;2022-09-23T07:59:44;11.70;;;6.50;;
69170;SDS011;56279;47.902;12.308;2022-09-23T08:01:47;15.50;;;6.10;;
69170;SDS011;56279;47.902;12.308;2022-09-23T08:03:50;9.25;;;5.38;;
69170;SDS011;56279;47.902;12.308;2022-09-23T08:05:51;13.80;;;6.15;;
69170;SDS011;56279;47.902;12.308;2022-09-23T08:07:53;9.07;;;5.53;;
69170;SDS011;56279;47.902;12.308;2022-09-23T08:09:54;10.20;;;6.22;;
69170;SDS011;56279;47.902;12.308;2022-09-23T08:11:56;9.93;;;5.73;;
69170;SDS011;56279;47.902;12.308;2022-09-23T08:13:58;9.23;;;5.47;;
69170;SDS011;56279;47.902;12.308;2022-09-23T08:15:59;10.98;;;6.07;;
69170;SDS011;56279;47.902;12.308;2022-09-23T08:18:00;10.30;;;5.60;;
69170;SDS011;56279;47.902;12.308;2022-09-23T08:20:02;8.98;;;5.30;;
69170;SDS011;56279;47.902;12.308;2022-09-23T08:22:03;8.97;;;4.77;;
69170;SDS011;56279;47.902;12.308;2022-09-23T08:24:16;9.23;;;5.40;;
69170;SDS011;56279;47.902;12.308;2022-09-23T08:26:19;10.40;;;5.10;;
69170;SDS011;56279;47.902;12.308;2022-09-23T08:28:21;10.13;;;5.82;;
69170;SDS011;56279;47.902;12.308;2022-09-23T08:30:22;8.43;;;4.88;;
69170;SDS011;56279;47.902;12.308;2022-09-23T08:32:24;8.90;;;5.20;;
69170;SDS011;56279;47.902;12.308;2022-09-23T08:34:25;10.02;;;5.57;;
69170;SDS011;56279;47.902;12.308;2022-09-23T08:36:27;8.43;;;4.63;;
69170;SDS011;56279;47.902;12.308;2022-09-23T08:38:29;7.45;;;4.85;;
69170;SDS011;56279;47.902;12.308;2022-09-23T08:40:32;7.68;;;4.60;;
69170;SDS011;56279;47.902;12.308;2022-09-23T08:42:39;10.37;;;5.20;;
69170;SDS011;56279;47.902;12.308;2022-09-23T08:46:54;9.32;;;5.63;;
69170;SDS011;56279;47.902;12.308;2022-09-23T08:49:00;8.38;;;4.95;;
69170;SDS011;56279;47.902;12.308;2022-09-23T08:51:05;8.77;;;5.22;;
69170;SDS011;56279;47.902;12.308;2022-09-23T08:55:45;8.68;;;4.80;;
69170;SDS011;56279;47.902;12.308;2022-09-23T09:00:12;9.05;;;4.45;;
69170;SDS011;56279;47.902;12.308;2022-09-23T09:02:19;9.73;;;4.95;;
69170;SDS011;56279;47.902;12.308;2022-09-23T09:06:39;7.38;;;4.65;;
69170;SDS011;56279;47.902;12.308;2022-09-23T09:08:49;7.57;;;4.82;;
69170;SDS011;56279;47.902;12.308;2022-09-23T09:10:55;7.65;;;4.38;;
69170;SDS011;56279;47.902;12.308;2022-09-23T09:13:04;7.97;;;4.47;;
69170;SDS011;56279;47.902;12.308;2022-09-23T09:17:13;7.22;;;4.70;;
69170;SDS011;56279;47.902;12.308;2022-09-23T09:19:38;7.75;;;3.97;;
69170;SDS011;56279;47.902;12.308;2022-09-23T09:21:53;6.95;;;3.90;;
69170;SDS011;56279;47.902;12.308;2022-09-23T09:23:58;7.93;;;4.68;;
69170;SDS011;56279;47.902;12.308;2022-09-23T09:26:01;7.60;;;3.57;;
69170;SDS011;56279;47.902;12.308;2022-09-23T09:28:18;6.82;;;3.75;;
69170;SDS011;56279;47.902;12.308;2022-09-23T09:30:24;6.70;;;3.75;;
69170;SDS011;56279;47.902;12.308;2022-09-23T09:32:41;6.88;;;3.88;;
69170;SDS011;56279;47.902;12.308;2022-09-23T09:34:50;7.03;;;3.65;;
69170;SDS011;56279;47.902;12.308;2022-09-23T09:37:07;7.03;;;3.47;;
69170;SDS011;56279;47.902;12.308;2022-09-23T09:39:15;5.65;;;3.53;;
69170;SDS011;56279;47.902;12.308;2022-09-23T09:41:17;6.90;;;3.50;;
69170;SDS011;56279;47.902;12.308;2022-09-23T09:43:21;5.30;;;3.00;;
69170;SDS011;56279;47.902;12.308;2022-09-23T09:45:32;5.95;;;3.50;;
69170;SDS011;56279;47.902;12.308;2022-09-23T09:52:11;4.93;;;3.08;;
69170;SDS011;56279;47.902;12.308;2022-09-23T09:54:22;5.45;;;3.15;;
69170;SDS011;56279;47.902;12.308;2022-09-23T09:56:32;5.40;;;3.10;;
69170;SDS011;56279;47.902;12.308;2022-09-23T09:58:39;7.20;;;3.23;;
69170;SDS011;56279;47.902;12.308;2022-09-23T10:00:53;6.05;;;3.40;;
69170;SDS011;56279;47.902;12.308;2022-09-23T10:05:02;6.10;;;3.60;;
69170;SDS011;56279;47.902;12.308;2022-09-23T10:07:15;6.55;;;3.17;;
69170;SDS011;56279;47.902;12.308;2022-09-23T10:09:28;6.20;;;3.03;;
69170;SDS011;56279;47.902;12.308;2022-09-23T10:11:34;7.05;;;3.45;;
69170;SDS011;56279;47.902;12.308;2022-09-23T10:13:36;5.70;;;3.17;;
69170;SDS011;56279;47.902;12.308;2022-09-23T10:15:41;6.75;;;3.35;;
69170;SDS011;56279;47.902;12.308;2022-09-23T10:17:44;7.47;;;3.40;;
69170;SDS011;56279;47.902;12.308;2022-09-23T10:19:55;5.50;;;2.90;;
69170;SDS011;56279;47.902;12.308;2022-09-23T10:22:15;6.30;;;3.53;;
69170;SDS011;56279;47.902;12.308;2022-09-23T10:24:21;6.78;;;3.35;;
69170;SDS011;56279;47.902;12.308;2022-09-23T10:26:27;6.03;;;3.47;;
69170;SDS011;56279;47.902;12.308;2022-09-23T10:30:41;6.27;;;3.30;;
69170;SDS011;56279;47.902;12.308;2022-09-23T10:33:23;5.60;;;2.90;;
69170;SDS011;56279;47.902;12.308;2022-09-23T10:35:26;6.63;;;3.55;;
69170;SDS011;56279;47.902;12.308;2022-09-23T10:37:32;6.32;;;3.83;;
69170;SDS011;56279;47.902;12.308;2022-09-23T10:39:36;6.03;;;3.50;;
69170;SDS011;56279;47.902;12.308;2022-09-23T10:42:03;6.67;;;3.37;;
69170;SDS011;56279;47.902;12.308;2022-09-23T10:44:43;6.53;;;3.03;;
69170;SDS011;56279;47.902;12.308;2022-09-23T10:47:42;6.55;;;3.33;;
69170;SDS011;56279;47.902;12.308;2022-09-23T10:49:57;6.20;;;3.00;;
69170;SDS011;56279;47.902;12.308;2022-09-23T10:56:53;6.47;;;3.45;;
69170;SDS011;56279;47.902;12.308;2022-09-23T10:59:07;5.88;;;3.42;;
69170;SDS011;56279;47.902;12.308;2022-09-23T11:06:12;6.10;;;3.13;;
69170;SDS011;56279;47.902;12.308;2022-09-23T11:10:45;7.85;;;3.38;;
69170;SDS011;56279;47.902;12.308;2022-09-23T11:15:43;6.10;;;3.45;;
69170;SDS011;56279;47.902;12.308;2022-09-23T11:18:05;6.43;;;3.40;;
69170;SDS011;56279;47.902;12.308;2022-09-23T11:20:31;6.10;;;3.40;;
69170;SDS011;56279;47.902;12.308;2022-09-23T11:36:41;6.15;;;3.10;;
69170;SDS011;56279;47.902;12.308;2022-09-23T11:38:53;6.22;;;3.15;;
69170;SDS011;56279;47.902;12.308;2022-09-23T11:41:11;5.37;;;3.03;;
69170;SDS011;56279;47.902;12.308;2022-09-23T11:43:22;7.35;;;2.97;;
69170;SDS011;56279;47.902;12.308;2022-09-23T11:46:00;7.13;;;2.70;;
69170;SDS011;56279;47.902;12.308;2022-09-23T11:50:39;5.38;;;2.60;;
69170;SDS011;56279;47.902;12.308;2022-09-23T11:52:50;4.40;;;2.60;;
69170;SDS011;56279;47.902;12.308;2022-09-23T11:57:09;5.20;;;2.70;;
69170;SDS011;56279;47.902;12.308;2022-09-23T11:59:25;4.95;;;2.70;;
69170;SDS011;56279;47.902;12.308;2022-09-23T12:01:37;6.47;;;3.00;;
69170;SDS011;56279;47.902;12.308;2022-09-23T12:06:03;4.32;;;2.40;;
69170;SDS011;56279;47.902;12.308;2022-09-23T12:10:32;5.60;;;2.90;;
69170;SDS011;56279;47.902;12.308;2022-09-23T12:12:49;6.20;;;2.83;;
69170;SDS011;56279;47.902;12.308;2022-09-23T12:26:16;7.97;;;2.97;;
69170;SDS011;56279;47.902;12.308;2022-09-23T12:28:28;4.95;;;2.80;;
69170;SDS011;56279;47.902;12.308;2022-09-23T12:30:35;5.75;;;2.78;;
69170;SDS011;56279;47.902;12.308;2022-09-23T12:32:39;5.22;;;3.00;;
69170;SDS011;56279;47.902;12.308;2022-09-23T12:34:46;7.40;;;3.10;;
69170;SDS011;56279;47.902;12.308;2022-09-23T12:36:51;5.13;;;2.80;;
69170;SDS011;56279;47.902;12.308;2022-09-23T12:38:56;5.75;;;2.90;;
69170;SDS011;56279;47.902;12.308;2022-09-23T12:41:17;7.05;;;2.83;;
69170;SDS011;56279;47.902;12.308;2022-09-23T12:43:28;4.65;;;2.78;;
69170;SDS011;56279;47.902;12.308;2022-09-23T12:45:32;7.25;;;2.60;;
69170;SDS011;56279;47.902;12.308;2022-09-23T12:47:37;5.13;;;2.50;;
69170;SDS011;56279;47.902;12.308;2022-09-23T12:49:40;4.40;;;2.55;;
69170;SDS011;56279;47.902;12.308;2022-09-23T12:51:42;6.03;;;2.72;;
69170;SDS011;56279;47.902;12.308;2022-09-23T12:54:25;4.38;;;2.60;;
69170;SDS011;56279;47.902;12.308;2022-09-23T13:00:44;4.57;;;2.72;;
69170;SDS011;56279;47.902;12.308;2022-09-23T13:03:08;4.80;;;2.58;;
69170;SDS011;56279;47.902;12.308;2022-09-23T13:05:31;5.50;;;2.65;;
69170;SDS011;56279;47.902;12.308;2022-09-23T13:07:54;5.60;;;2.50;;
69170;SDS011;56279;47.902;12.308;2022-09-23T13:10:17;6.50;;;2.83;;
69170;SDS011;56279;47.902;12.308;2022-09-23T13:12:29;4.82;;;2.55;;
69170;SDS011;56279;47.902;12.308;2022-09-23T13:14:34;5.90;;;3.10;;
69170;SDS011;56279;47.902;12.308;2022-09-23T13:16:40;4.35;;;2.60;;
69170;SDS011;56279;47.902;12.308;2022-09-23T13:20:56;4.13;;;2.37;;
69170;SDS011;56279;47.902;12.308;2022-09-23T13:23:43;5.50;;;2.80;;
69170;SDS011;56279;47.902;12.308;2022-09-23T13:25:27;7.13;;;3.10;;
69170;SDS011;56279;47.902;12.308;2022-09-23T13:27:32;6.38;;;3.05;;
69170;SDS011;56279;47.902;12.308;2022-09-23T13:31:58;5.27;;;2.87;;
69170;SDS011;56279;47.902;12.308;2022-09-23T13:34:02;5.93;;;3.17;;
69170;SDS011;56279;47.902;12.308;2022-09-23T13:36:13;5.60;;;2.53;;
69170;SDS011;56279;47.902;12.308;2022-09-23T13:38:20;5.68;;;2.58;;
69170;SDS011;56279;47.902;12.308;2022-09-23T13:40:26;5.32;;;2.65;;
69170;SDS011;56279;47.902;12.308;2022-09-23T13:42:28;7.10;;;2.80;;
69170;SDS011;56279;47.902;12.308;2022-09-23T13:44:30;4.88;;;2.90;;
69170;SDS011;56279;47.902;12.308;2022-09-23T13:46:43;5.00;;;2.60;;
69170;SDS011;56279;47.902;12.308;2022-09-23T13:48:50;4.38;;;2.40;;
69170;SDS011;56279;47.902;12.308;2022-09-23T13:50:54;6.22;;;2.60;;
69170;SDS011;56279;47.902;12.308;2022-09-23T13:52:57;3.77;;;2.30;;
69170;SDS011;56279;47.902;12.308;2022-09-23T13:55:01;4.85;;;2.65;;
69170;SDS011;56279;47.902;12.308;2022-09-23T13:57:03;4.95;;;2.53;;
69170;SDS011;56279;47.902;12.308;2022-09-23T14:01:31;4.05;;;2.22;;
69170;SDS011;56279;47.902;12.308;2022-09-23T14:03:35;6.23;;;2.87;;
69170;SDS011;56279;47.902;12.308;2022-09-23T14:05:38;5.22;;;2.70;;
69170;SDS011;56279;47.902;12.308;2022-09-23T14:07:39;7.43;;;2.80;;
69170;SDS011;56279;47.902;12.308;2022-09-23T14:09:45;4.97;;;2.60;;
69170;SDS011;56279;47.902;12.308;2022-09-23T14:11:50;5.47;;;2.72;;
69170;SDS011;56279;47.902;12.308;2022-09-23T14:13:52;5.30;;;2.90;;
69170;SDS011;56279;47.902;12.308;2022-09-23T14:15:56;6.72;;;2.95;;
69170;SDS011;56279;47.902;12.308;2022-09-23T14:18:00;6.20;;;3.20;;
69170;SDS011;56279;47.902;12.308;2022-09-23T14:20:11;4.32;;;2.67;;
69170;SDS011;56279;47.902;12.308;2022-09-23T14:22:21;4.13;;;2.40;;
69170;SDS011;56279;47.902;12.308;2022-09-23T14:24:36;4.57;;;2.40;;
69170;SDS011;56279;47.902;12.308;2022-09-23T14:26:38;9.32;;;3.33;;
69170;SDS011;56279;47.902;12.308;2022-09-23T14:28:41;4.97;;;2.88;;
69170;SDS011;56279;47.902;12.308;2022-09-23T14:30:43;6.82;;;2.75;;
69170;SDS011;56279;47.902;12.308;2022-09-23T14:32:48;5.82;;;2.72;;
69170;SDS011;56279;47.902;12.308;2022-09-23T14:34:50;5.40;;;2.47;;
69170;SDS011;56279;47.902;12.308;2022-09-23T14:37:08;5.00;;;2.30;;
69170;SDS011;56279;47.902;12.308;2022-09-23T14:39:37;5.28;;;2.40;;
69170;SDS011;56279;47.902;12.308;2022-09-23T14:41:40;5.88;;;2.60;;
69170;SDS011;56279;47.902;12.308;2022-09-23T14:43:45;5.40;;;2.63;;
69170;SDS011;56279;47.902;12.308;2022-09-23T14:45:49;6.40;;;2.20;;